Time;durP1;ratioP1;P1;durP2;ratioP2;P2;SDS_P1;SDS_P2;PMS_P1;PMS_P2;Temp;Humidity;BMP_temperature;BMP_pressure;BME280_temperature;BME280_humidity;BME280_pressure;Samples;Min_cycle;Max_cycle;Signal;HPM_P1;HPM_P2
2022/04/27 00:00:17;;;;;;;4.43;3.30;;;;;;;13.90;61.39;94880.53;5135153;22;20412;-76
2022/04/27 00:02:43;;;;;;;10.70;3.80;;;;;;;13.91;61.48;94883.94;5102016;28;20027;-76
2022/04/27 00:05:09;;;;;;;8.60;3.75;;;;;;;13.85;61.53;94882.31;5102426;28;20459;-76
2022/04/27 00:07:34;;;;;;;8.48;3.45;;;;;;;13.82;61.19;94887.00;5083818;28;20036;-76
2022/04/27 00:09:59;;;;;;;8.50;3.80;;;;;;;13.81;61.75;94885.41;5082866;28;20031;-76
2022/04/27 00:12:25;;;;;;;8.20;4.50;;;;;;;13.76;61.29;94882.78;5083643;28;20447;-76
2022/04/27 00:14:51;;;;;;;13.27;3.92;;;;;;;13.75;61.63;94883.81;5101896;28;20372;-77
2022/04/27 00:17:16;;;;;;;6.35;4.20;;;;;;;13.74;61.95;94886.66;5100322;28;20035;-76
2022/04/27 00:19:42;;;;;;;10.27;4.03;;;;;;;13.70;61.88;94889.00;5100360;28;20038;-76
2022/04/27 00:22:07;;;;;;;5.38;3.58;;;;;;;13.70;61.76;94889.00;5082739;28;20384;-77
2022/04/27 00:24:32;;;;;;;5.00;3.58;;;;;;;13.66;61.86;94889.72;5083905;28;20648;-78
2022/04/27 00:26:58;;;;;;;6.22;3.83;;;;;;;13.59;61.92;94889.94;5067070;28;20111;-77
2022/04/27 00:29:23;;;;;;;10.88;3.83;;;;;;;13.56;61.93;94890.44;5100556;28;20046;-77
2022/04/27 00:31:49;;;;;;;5.22;3.22;;;;;;;13.54;62.10;94889.91;5083520;28;20114;-77
2022/04/27 00:34:14;;;;;;;4.03;3.22;;;;;;;13.44;62.65;94887.97;5082248;28;20036;-77
2022/04/27 00:36:40;;;;;;;3.85;3.40;;;;;;;13.42;62.86;94897.09;5100628;28;20058;-77
2022/04/27 00:39:05;;;;;;;14.02;3.47;;;;;;;13.43;62.54;94890.84;5083670;28;20055;-77
2022/04/27 00:41:30;;;;;;;6.43;3.38;;;;;;;13.44;62.90;94887.97;5065981;28;20031;-77
2022/04/27 00:43:56;;;;;;;4.78;3.85;;;;;;;13.42;62.47;94890.06;5082778;28;20040;-76
2022/04/27 00:46:21;;;;;;;7.03;3.50;;;;;;;13.38;62.36;94890.81;5081012;28;20032;-77
2022/04/27 00:48:47;;;;;;;4.93;3.25;;;;;;;13.32;63.12;94889.16;5083001;28;20479;-77
2022/04/27 00:51:14;;;;;;;5.53;3.58;;;;;;;13.30;62.99;94896.44;5101754;28;20062;-77
2022/04/27 00:53:40;;;;;;;7.25;3.42;;;;;;;13.30;62.49;94891.22;5083286;28;20557;-77
2022/04/27 00:56:06;;;;;;;13.38;4.30;;;;;;;13.30;62.85;94888.63;5082587;28;20115;-77
2022/04/27 00:58:31;;;;;;;5.25;3.40;;;;;;;13.30;62.78;94888.63;5082534;28;20130;-77
2022/04/27 01:00:57;;;;;;;5.93;3.90;;;;;;;13.24;62.76;94897.44;5082641;28;20039;-77
2022/04/27 01:03:22;;;;;;;3.72;3.42;;;;;;;13.17;62.93;94895.78;5083331;28;20028;-77
2022/04/27 01:05:48;;;;;;;8.32;4.03;;;;;;;13.17;63.30;94893.16;5100710;28;20086;-78
2022/04/27 01:08:16;;;;;;;5.15;4.00;;;;;;;13.12;62.91;94890.50;5100929;28;20501;-78
2022/04/27 01:10:42;;;;;;;9.18;3.60;;;;;;;13.11;63.29;94893.38;5100429;28;20029;-78
2022/04/27 01:13:08;;;;;;;11.35;4.70;;;;;;;13.10;62.68;94887.34;5101289;28;20085;-78
2022/04/27 01:15:33;;;;;;;13.15;7.90;;;;;;;13.05;63.01;94892.53;5100879;28;20039;-78
2022/04/27 01:17:59;;;;;;;8.40;5.78;;;;;;;13.06;62.82;94891.50;5101904;28;20028;-78
2022/04/27 01:20:29;;;;;;;9.38;5.15;;;;;;;12.97;63.22;94886.94;5099940;28;20053;-78
2022/04/27 01:22:55;;;;;;;7.72;4.82;;;;;;;12.95;63.14;94887.19;5066439;28;20031;-77
2022/04/27 01:25:20;;;;;;;13.48;4.75;;;;;;;12.89;63.67;94886.34;5082814;28;20038;-78
2022/04/27 01:27:46;;;;;;;7.35;4.28;;;;;;;12.84;63.88;94882.88;5100603;28;20035;-78
2022/04/27 01:30:11;;;;;;;12.75;4.03;;;;;;;12.81;63.74;94885.97;5101255;28;20528;-78
2022/04/27 01:32:37;;;;;;;8.48;5.05;;;;;;;12.74;63.69;94882.78;5101131;28;20490;-77
2022/04/27 01:35:03;;;;;;;7.40;5.68;;;;;;;12.73;63.49;94886.41;5065513;28;20035;-77
2022/04/27 01:40:12;;;;;;;8.50;6.68;;;;;;;12.69;63.53;94887.91;5099667;28;20078;-77
2022/04/27 01:42:37;;;;;;;9.48;6.97;;;;;;;12.67;64.05;94887.38;5066127;28;20032;-77
2022/04/27 01:45:03;;;;;;;22.88;7.78;;;;;;;12.62;63.71;94886.28;5098011;28;20035;-77
2022/04/27 01:47:29;;;;;;;10.50;7.82;;;;;;;12.61;63.42;94889.91;5082912;28;20044;-77
2022/04/27 01:49:54;;;;;;;40.35;17.55;;;;;;;12.57;63.48;94891.44;5082135;28;20035;-77
2022/04/27 01:55:04;;;;;;;128.68;68.18;;;;;;;12.48;63.99;94889.47;5084271;28;20767;-77
2022/04/27 01:57:30;;;;;;;154.57;83.70;;;;;;;12.42;63.64;94882.63;5082567;28;20035;-77
2022/04/27 01:59:56;;;;;;;175.02;95.57;;;;;;;12.39;64.10;94883.91;5065708;28;20453;-77
2022/04/27 02:02:21;;;;;;;145.75;76.13;;;;;;;12.37;64.04;94883.38;5082436;28;20024;-77
2022/04/27 02:04:47;;;;;;;108.93;60.30;;;;;;;12.30;64.06;94882.72;5099921;28;20036;-77
2022/04/27 02:07:12;;;;;;;102.50;52.88;;;;;;;12.31;64.34;94879.09;5081806;28;20036;-77
2022/04/27 02:09:38;;;;;;;67.53;35.00;;;;;;;12.31;64.31;94884.31;5081435;28;20036;-77
2022/04/27 02:12:04;;;;;;;54.22;25.65;;;;;;;12.29;64.25;94883.75;5081983;28;20097;-77
2022/04/27 02:14:30;;;;;;;41.92;20.40;;;;;;;12.21;64.24;94881.56;5099688;28;20024;-77
2022/04/27 02:16:57;;;;;;;35.67;17.58;;;;;;;12.17;64.19;94889.06;5082299;28;20031;-77
2022/04/27 02:19:22;;;;;;;38.05;15.68;;;;;;;12.15;64.60;94887.72;5081114;28;20032;-77
2022/04/27 02:21:47;;;;;;;39.10;14.27;;;;;;;12.12;64.55;94886.41;5081486;28;20028;-77
2022/04/27 02:24:13;;;;;;;25.48;11.77;;;;;;;12.11;64.81;94889.25;5081681;28;20024;-77
2022/04/27 02:26:38;;;;;;;26.52;11.27;;;;;;;12.08;65.42;94890.50;5082329;28;20387;-77
2022/04/27 02:29:04;;;;;;;19.63;10.63;;;;;;;12.07;65.12;94885.53;5099899;28;20032;-77
2022/04/27 02:31:29;;;;;;;22.00;8.30;;;;;;;12.09;64.87;94888.69;5080837;28;20093;-77
2022/04/27 02:33:55;;;;;;;17.90;6.88;;;;;;;12.03;64.93;94888.59;5065163;28;20031;-77
2022/04/27 02:36:21;;;;;;;16.75;8.52;;;;;;;12.07;64.56;94890.75;5063293;28;20031;-77
2022/04/27 02:38:46;;;;;;;17.52;6.60;;;;;;;12.02;64.38;94896.66;5098414;28;20032;-77
2022/04/27 02:41:11;;;;;;;20.70;6.35;;;;;;;11.97;64.94;94901.81;5098227;28;20058;-77
2022/04/27 02:43:37;;;;;;;12.75;7.38;;;;;;;11.92;64.90;94888.72;5080584;28;20034;-77
2022/04/27 02:46:02;;;;;;;15.90;5.70;;;;;;;11.94;64.79;94892.66;5098687;28;20039;-77
2022/04/27 02:48:28;;;;;;;18.15;6.10;;;;;;;11.91;64.78;94893.13;5081982;28;20559;-77
2022/04/27 02:53:37;;;;;;;19.92;6.75;;;;;;;11.85;64.63;94881.03;5083907;28;20053;-77
2022/04/27 02:56:03;;;;;;;14.48;6.78;;;;;;;11.82;65.09;94885.94;5098723;28;20028;-77
2022/04/27 02:58:31;;;;;;;9.85;5.70;;;;;;;11.88;65.05;94893.63;5081753;28;20032;-78
2022/04/27 03:00:57;;;;;;;13.57;4.88;;;;;;;11.89;65.59;94891.78;5098184;28;20031;-76
2022/04/27 03:03:22;;;;;;;18.92;6.53;;;;;;;11.87;65.52;94899.03;5098704;28;20031;-77
2022/04/27 03:05:48;;;;;;;25.48;6.13;;;;;;;11.88;65.43;94885.00;5080385;28;20459;-77
2022/04/27 03:08:14;;;;;;;16.55;5.55;;;;;;;11.88;64.76;94891.00;5081536;28;20088;-77
2022/04/27 03:10:39;;;;;;;24.30;6.47;;;;;;;11.86;65.06;94887.81;5098969;28;20035;-78
2022/04/27 03:13:05;;;;;;;15.73;6.72;;;;;;;11.82;64.91;94889.34;5099473;28;20023;-78
2022/04/27 03:15:32;;;;;;;25.50;6.22;;;;;;;11.79;65.27;94897.63;5081277;28;20089;-77
2022/04/27 03:20:42;;;;;;;45.03;9.70;;;;;;;11.76;65.23;94900.69;5084236;28;20462;-77
2022/04/27 03:23:07;;;;;;;30.90;9.77;;;;;;;11.73;65.29;94901.94;5098942;28;20032;-77
2022/04/27 03:25:33;;;;;;;41.95;15.27;;;;;;;11.69;65.37;94900.81;5082069;28;20039;-77
2022/04/27 03:27:58;;;;;;;41.55;16.60;;;;;;;11.67;65.37;94904.69;5081980;28;20052;-77
2022/04/27 03:30:24;;;;;;;53.97;17.13;;;;;;;11.63;65.32;94904.38;5081079;28;20027;-77
2022/04/27 03:32:49;;;;;;;25.02;10.38;;;;;;;11.68;65.22;94908.88;5084257;28;20040;-77
2022/04/27 03:35:14;;;;;;;26.88;10.20;;;;;;;11.67;65.38;94910.69;5101872;28;20040;-77
2022/04/27 03:37:40;;;;;;;38.40;11.43;;;;;;;11.70;65.24;94912.03;5102055;28;20032;-77
2022/04/27 03:40:08;;;;;;;142.88;30.63;;;;;;;11.72;64.63;94917.81;5084474;28;20966;-77
2022/04/27 03:42:33;;;;;;;78.47;16.90;;;;;;;11.72;64.87;94915.22;5100593;28;20031;-77
2022/04/27 03:44:59;;;;;;;58.78;11.77;;;;;;;11.78;64.37;94924.69;5102116;28;20123;-77
2022/04/27 03:47:25;;;;;;;39.22;8.52;;;;;;;11.87;64.09;94918.06;5102686;28;20035;-77
2022/04/27 03:49:51;;;;;;;23.27;7.07;;;;;;;11.97;64.88;94926.03;5084199;28;20020;-77
2022/04/27 03:52:17;;;;;;;21.65;7.57;;;;;;;12.05;64.24;94927.47;5083545;28;20461;-76
2022/04/27 03:54:43;;;;;;;23.55;6.97;;;;;;;12.16;63.87;94934.41;5081802;28;20054;-77
2022/04/27 03:57:08;;;;;;;22.77;9.73;;;;;;;12.22;63.63;94937.91;5067138;28;20828;-77
2022/04/27 03:59:34;;;;;;;36.80;17.17;;;;;;;12.30;63.31;94940.88;5101521;28;20035;-77
2022/04/27 04:02:00;;;;;;;47.90;18.08;;;;;;;12.38;63.02;94934.47;5101666;28;20035;-76
2022/04/27 04:04:25;;;;;;;70.63;21.15;;;;;;;12.82;62.65;94935.31;5084639;28;20032;-76
2022/04/27 04:06:50;;;;;;;52.33;18.67;;;;;;;13.96;58.85;94941.47;5102043;28;20494;-76
2022/04/27 04:09:16;;;;;;;56.67;18.25;;;;;;;15.20;55.25;94935.69;5082156;28;20035;-77
2022/04/27 04:11:42;;;;;;;57.58;17.58;;;;;;;16.44;51.09;94944.22;5049505;28;20036;-80
2022/04/27 04:14:07;;;;;;;71.25;15.02;;;;;;;17.70;47.75;94944.06;5083360;28;20040;-77
2022/04/27 04:16:33;;;;;;;55.28;14.52;;;;;;;18.93;44.76;94941.97;5101055;28;20036;-77
2022/04/27 04:18:58;;;;;;;53.17;15.65;;;;;;;20.13;42.53;94950.44;5085035;28;20476;-77
2022/04/27 04:21:24;;;;;;;66.80;16.23;;;;;;;21.16;39.46;94944.97;5088078;28;20039;-78
2022/04/27 04:23:49;;;;;;;54.63;13.93;;;;;;;22.28;37.62;94947.84;5068665;28;20127;-78
2022/04/27 04:28:59;;;;;;;40.38;8.82;;;;;;;24.68;32.76;94945.28;5085487;28;20157;-82
2022/04/27 04:31:25;;;;;;;41.00;7.80;;;;;;;25.77;30.91;94948.09;5083913;28;20032;-78
2022/04/27 04:33:50;;;;;;;44.35;7.88;;;;;;;26.79;29.24;94938.72;5102167;28;20038;-76
2022/04/27 04:36:16;;;;;;;25.92;6.75;;;;;;;27.38;28.44;94939.09;5083231;28;20027;-75
2022/04/27 04:38:41;;;;;;;14.50;4.28;;;;;;;28.54;26.87;94947.41;5083011;28;20031;-78
2022/04/27 04:41:07;;;;;;;11.88;3.58;;;;;;;29.43;25.74;94952.28;5099856;28;20063;-77
2022/04/27 04:43:32;;;;;;;18.85;3.55;;;;;;;30.08;24.86;94949.91;5082774;28;20483;-77
2022/04/27 04:45:58;;;;;;;17.77;4.28;;;;;;;30.95;23.70;94943.13;5101666;28;20032;-77
2022/04/27 04:48:24;;;;;;;10.43;3.20;;;;;;;31.80;23.03;94957.91;5066146;28;20059;-79
2022/04/27 04:50:49;;;;;;;10.25;2.72;;;;;;;32.36;22.42;94949.00;5099519;28;20038;-79
2022/04/27 04:53:15;;;;;;;6.68;3.10;;;;;;;33.14;20.81;94951.72;5108376;28;20046;-77
2022/04/27 04:55:40;;;;;;;11.23;3.00;;;;;;;33.91;20.54;94958.88;5101299;28;20031;-77
2022/04/27 04:58:06;;;;;;;14.23;2.70;;;;;;;34.38;19.92;94959.09;5066385;28;20515;-79
2022/04/27 05:00:31;;;;;;;10.02;3.10;;;;;;;35.22;18.73;94963.13;5082074;28;20060;-77
2022/04/27 05:02:57;;;;;;;5.47;2.67;;;;;;;35.72;18.65;94966.59;5100348;28;20032;-83
2022/04/27 05:05:23;;;;;;;9.23;2.53;;;;;;;36.41;17.72;94972.63;5081887;28;20046;-77
2022/04/27 05:07:48;;;;;;;13.95;2.53;;;;;;;37.14;17.19;94964.50;5101684;28;20466;-77
2022/04/27 05:10:14;;;;;;;11.98;2.92;;;;;;;37.79;16.24;94963.56;5101426;28;20544;-77
2022/04/27 05:12:39;;;;;;;4.35;2.45;;;;;;;38.28;15.57;94971.59;5089298;28;20418;-76
2022/04/27 05:15:16;;;;;;;10.70;2.05;;;;;;;38.57;15.72;94970.09;5082193;28;20517;-79
2022/04/27 05:17:41;;;;;;;11.27;3.08;;;;;;;39.14;14.82;94963.88;5098363;28;20040;-77
2022/04/27 05:20:10;;;;;;;7.22;2.50;;;;;;;39.83;14.37;94951.44;5100449;28;20038;-77
2022/04/27 05:22:38;;;;;;;16.63;2.97;;;;;;;40.37;13.61;94953.94;5100283;28;20028;-77
2022/04/27 05:25:04;;;;;;;9.70;2.58;;;;;;;40.71;13.29;94958.31;5106354;28;20102;-77
2022/04/27 05:27:30;;;;;;;14.90;3.17;;;;;;;40.98;13.05;94961.59;5100083;28;20036;-77
2022/04/27 05:32:43;;;;;;;9.10;3.30;;;;;;;41.66;13.30;94960.78;5098665;28;20128;-77
2022/04/27 05:35:08;;;;;;;18.67;2.78;;;;;;;41.76;12.53;94955.47;5101113;28;20498;-77
2022/04/27 05:37:34;;;;;;;20.05;2.92;;;;;;;42.22;12.35;94957.75;5099856;28;20067;-77
2022/04/27 05:39:59;;;;;;;11.07;2.83;;;;;;;42.50;11.60;94961.66;5100306;28;20486;-77
2022/04/27 05:42:35;;;;;;;17.10;2.65;;;;;;;42.75;11.73;94960.13;5099578;28;20036;-77
2022/04/27 05:45:00;;;;;;;14.00;3.13;;;;;;;43.06;11.38;94965.84;5065614;28;20038;-77
2022/04/27 05:47:26;;;;;;;11.50;3.25;;;;;;;43.46;11.19;94962.66;5099917;28;20039;-77
2022/04/27 05:49:51;;;;;;;7.95;3.22;;;;;;;43.51;11.17;94964.84;5098106;28;20032;-77
2022/04/27 05:52:18;;;;;;;11.90;2.83;;;;;;;43.78;11.34;94972.59;5099299;28;20040;-77
2022/04/27 05:54:44;;;;;;;7.70;3.10;;;;;;;43.87;10.69;94969.91;5100837;28;20028;-77
2022/04/27 05:57:14;;;;;;;11.48;2.92;;;;;;;44.06;10.94;94959.84;5100336;28;20091;-77
2022/04/27 05:59:40;;;;;;;12.55;3.28;;;;;;;44.24;10.74;94962.72;5081117;28;20035;-77
2022/04/27 06:02:05;;;;;;;9.00;2.67;;;;;;;44.41;10.94;94963.28;5101094;28;20140;-77
2022/04/27 06:04:31;;;;;;;9.05;2.97;;;;;;;44.55;10.61;94960.81;5099595;28;20399;-77
2022/04/27 06:06:56;;;;;;;16.20;3.58;;;;;;;44.43;10.50;94964.41;5171326;22;20105;-77
2022/04/27 06:09:21;;;;;;;7.95;3.40;;;;;;;43.99;10.89;94961.63;5094314;28;20054;-77
2022/04/27 06:11:47;;;;;;;15.75;4.45;;;;;;;43.66;11.60;94974.13;5089402;28;20439;-77
2022/04/27 06:14:12;;;;;;;15.02;3.78;;;;;;;43.01;11.90;94960.94;5087959;28;20032;-77
2022/04/27 06:16:38;;;;;;;10.20;3.08;;;;;;;42.40;11.91;94959.19;5088127;28;20506;-77
2022/04/27 06:19:03;;;;;;;12.45;3.92;;;;;;;41.13;12.35;94961.25;5063189;28;20020;-77
2022/04/27 06:21:31;;;;;;;13.82;3.35;;;;;;;39.79;13.58;94969.81;5071032;28;20498;-77
2022/04/27 06:23:56;;;;;;;18.13;3.90;;;;;;;38.59;14.73;94966.94;5102308;28;20413;-77
2022/04/27 06:26:22;;;;;;;16.77;4.00;;;;;;;37.53;15.62;94961.47;5087948;28;20028;-76
2022/04/27 06:28:47;;;;;;;11.32;3.45;;;;;;;36.78;16.17;94967.41;5063411;28;20035;-76
2022/04/27 06:31:13;;;;;;;15.85;3.47;;;;;;;36.18;17.21;94954.91;5063462;28;20031;-77
2022/04/27 06:33:38;;;;;;;17.98;3.97;;;;;;;35.60;17.70;94958.09;5087416;28;20024;-76
2022/04/27 06:36:04;;;;;;;21.23;3.80;;;;;;;34.51;18.89;94969.19;5087448;28;20077;-77
2022/04/27 06:38:29;;;;;;;21.00;4.32;;;;;;;34.01;19.80;94963.56;5087635;28;20036;-77
2022/04/27 06:40:55;;;;;;;12.88;4.38;;;;;;;33.67;19.58;94964.84;5074869;28;20024;-77
2022/04/27 06:43:20;;;;;;;12.77;4.13;;;;;;;33.11;20.07;94955.19;5087399;28;20043;-77
2022/04/27 06:45:46;;;;;;;19.52;5.15;;;;;;;32.36;21.06;94959.00;5088801;28;20016;-76
2022/04/27 06:48:11;;;;;;;19.73;5.60;;;;;;;31.81;22.15;94966.75;5086848;28;20052;-76
2022/04/27 06:50:37;;;;;;;18.73;5.40;;;;;;;30.68;22.97;94967.22;5088636;28;20042;-76
2022/04/27 06:53:04;;;;;;;9.57;4.47;;;;;;;29.84;24.23;94967.00;5088823;28;20557;-77
2022/04/27 06:55:30;;;;;;;15.45;5.50;;;;;;;29.49;24.71;94958.97;5061654;28;20032;-77
2022/04/27 06:57:55;;;;;;;12.50;5.43;;;;;;;29.18;25.72;94965.88;5088664;28;20028;-77
2022/04/27 07:00:21;;;;;;;12.35;5.50;;;;;;;29.16;25.50;94960.09;5087470;28;20430;-77
2022/04/27 07:02:47;;;;;;;15.15;5.25;;;;;;;28.77;25.88;94964.44;5088632;28;20024;-77
2022/04/27 07:05:17;;;;;;;12.35;6.05;;;;;;;28.55;26.78;94960.44;5073479;28;20116;-77
2022/04/27 07:07:45;;;;;;;18.05;5.07;;;;;;;28.43;26.57;94957.81;5069526;28;20028;-77
2022/04/27 07:10:11;;;;;;;16.40;5.45;;;;;;;28.34;26.92;94957.97;5089552;28;20040;-76
2022/04/27 07:12:36;;;;;;;15.82;5.65;;;;;;;28.11;27.13;94962.25;5091122;28;20039;-76
2022/04/27 07:15:02;;;;;;;24.67;5.95;;;;;;;28.01;27.31;94955.50;5092369;28;20028;-76
2022/04/27 07:17:28;;;;;;;21.13;6.10;;;;;;;27.86;27.31;94958.09;5092385;28;20039;-77
2022/04/27 07:19:53;;;;;;;11.93;6.45;;;;;;;27.55;27.62;94961.34;5089732;28;20039;-76
2022/04/27 07:22:18;;;;;;;19.63;6.72;;;;;;;27.31;28.67;94957.56;5091416;28;20044;-76
2022/04/27 07:24:44;;;;;;;17.88;6.80;;;;;;;27.31;28.71;94960.22;5091807;28;20085;-77
2022/04/27 07:27:20;;;;;;;20.90;6.97;;;;;;;27.33;28.82;94958.00;5092154;28;20039;-76
2022/04/27 07:29:46;;;;;;;19.52;6.18;;;;;;;27.28;29.76;94957.47;5063488;28;20089;-79
2022/04/27 07:32:11;;;;;;;19.23;5.40;;;;;;;27.28;29.75;94960.91;5098831;28;20500;-79
2022/04/27 07:34:37;;;;;;;19.25;6.65;;;;;;;27.02;29.08;94955.91;5102477;28;20560;-80
2022/04/27 07:37:04;;;;;;;20.80;6.18;;;;;;;26.84;30.12;94952.59;5099078;28;20036;-82
2022/04/27 07:39:30;;;;;;;13.10;6.13;;;;;;;26.74;30.09;94958.38;5207633;22;20102;-79
2022/04/27 07:41:55;;;;;;;27.50;7.32;;;;;;;26.46;30.09;94958.19;5106515;28;20048;-79
2022/04/27 07:44:21;;;;;;;15.98;6.30;;;;;;;26.14;30.61;94958.91;5081693;28;20491;-79
2022/04/27 07:46:50;;;;;;;26.02;7.50;;;;;;;25.87;31.31;94962.88;5051528;28;20040;-79
2022/04/27 07:49:16;;;;;;;22.52;6.88;;;;;;;25.81;31.17;94958.88;5085793;28;20043;-79
2022/04/27 07:51:42;;;;;;;19.85;5.80;;;;;;;25.66;31.45;94952.97;5070847;28;20044;-79
2022/04/27 07:54:07;;;;;;;19.80;6.88;;;;;;;25.63;31.53;94958.19;5088386;28;20584;-79
2022/04/27 07:56:33;;;;;;;21.63;5.85;;;;;;;25.44;31.93;94961.28;5083952;28;20039;-78
2022/04/27 07:58:58;;;;;;;15.70;6.28;;;;;;;25.31;32.43;94951.63;5083858;28;20101;-79
2022/04/27 08:01:24;;;;;;;22.55;6.18;;;;;;;24.94;32.46;94948.63;5087137;28;20040;-79
2022/04/27 08:03:49;;;;;;;14.90;6.47;;;;;;;24.81;33.26;94954.94;5068129;28;20042;-79
2022/04/27 08:06:15;;;;;;;15.05;6.30;;;;;;;24.87;33.17;94945.66;5085598;28;20023;-79
2022/04/27 08:08:40;;;;;;;19.10;6.30;;;;;;;24.69;33.24;94949.50;5084809;28;20089;-78
2022/04/27 08:11:07;;;;;;;21.38;5.55;;;;;;;24.60;33.60;94951.41;5058808;28;20439;-79
2022/04/27 08:13:33;;;;;;;15.20;6.13;;;;;;;24.66;33.66;94947.47;5053012;28;20028;-78
2022/04/27 08:16:24;;;;;;;23.83;5.70;;;;;;;24.67;33.60;94949.81;6214601;22;20063;31
2022/04/27 08:18:50;;;;;;;18.40;5.88;;;;;;;24.77;34.74;94938.06;5041850;28;20056;-78
2022/04/27 08:21:15;;;;;;;18.02;6.03;;;;;;;24.71;34.74;94945.41;5035952;28;20037;-79
2022/04/27 08:23:50;;;;;;;19.10;5.30;;;;;;;24.79;34.45;94935.84;5035300;28;20040;-79
2022/04/27 08:26:16;;;;;;;13.77;4.78;;;;;;;24.83;33.59;94936.78;5015789;28;20092;-79
2022/04/27 08:28:41;;;;;;;9.65;5.05;;;;;;;24.74;33.78;94933.38;5048100;28;20041;-79
2022/04/27 08:31:07;;;;;;;15.18;5.95;;;;;;;24.62;33.75;94938.56;5033719;28;20040;-79
2022/04/27 08:33:33;;;;;;;23.25;5.82;;;;;;;24.47;33.82;94930.00;5032467;28;20064;-79
2022/04/27 08:35:59;;;;;;;14.60;4.85;;;;;;;24.33;33.71;94932.06;5050325;28;20034;-79
2022/04/27 08:38:25;;;;;;;10.43;5.00;;;;;;;24.30;33.77;94934.56;5031267;28;20436;-79
2022/04/27 08:40:50;;;;;;;9.05;4.93;;;;;;;24.18;33.78;94925.31;5033793;28;20505;-80
2022/04/27 08:43:16;;;;;;;10.18;4.78;;;;;;;24.30;34.57;94929.25;5033079;28;20500;-80
2022/04/27 08:45:42;;;;;;;15.85;5.38;;;;;;;24.31;33.72;94928.94;5048387;28;20943;-80
2022/04/27 08:48:08;;;;;;;7.78;5.00;;;;;;;24.23;33.99;94917.19;5033645;28;20517;-80
2022/04/27 08:50:34;;;;;;;17.63;5.60;;;;;;;24.22;34.24;94920.94;5034301;28;20061;-80
2022/04/27 08:53:00;;;;;;;13.10;5.20;;;;;;;24.17;34.66;94915.78;5018226;28;20034;-79
2022/04/27 08:55:28;;;;;;;12.07;5.10;;;;;;;24.13;34.78;94909.56;5033834;28;20560;-79
2022/04/27 08:57:54;;;;;;;7.45;4.10;;;;;;;24.00;34.27;94912.38;5035403;28;20105;-79
2022/04/27 09:00:22;;;;;;;18.80;4.93;;;;;;;24.03;33.89;94909.09;5034107;28;20048;-79
2022/04/27 09:02:52;;;;;;;13.77;3.97;;;;;;;24.12;33.72;94907.22;5001440;28;20094;-80
2022/04/27 09:05:19;;;;;;;16.65;4.65;;;;;;;24.06;33.89;94908.47;5032698;28;20053;-79
2022/04/27 09:07:46;;;;;;;10.85;4.40;;;;;;;24.09;34.36;94907.84;5000178;28;20034;-79
2022/04/27 09:10:27;;;;;;;14.63;4.47;;;;;;;24.10;33.33;94904.09;5033153;28;20033;-79
2022/04/27 09:12:53;;;;;;;12.25;3.95;;;;;;;23.92;33.30;94904.13;5036920;28;20041;-79
2022/04/27 09:15:20;;;;;;;17.23;4.32;;;;;;;23.85;33.84;94901.13;5039212;28;20032;-79
2022/04/27 09:23:23;;;;;;;16.40;4.28;;;;;;;23.50;34.82;94886.25;5032188;28;20056;-79
2022/04/27 09:25:55;;;;;;;14.88;4.38;;;;;;;23.41;34.27;94888.13;5038200;28;20036;-78
2022/04/27 09:28:30;;;;;;;8.02;3.70;;;;;;;23.27;34.85;94889.06;5023930;28;20424;-79
2022/04/27 09:30:55;;;;;;;12.70;3.85;;;;;;;23.38;34.02;94888.75;5033068;28;20574;-78
2022/04/27 09:33:37;;;;;;;25.73;4.07;;;;;;;23.44;33.53;94876.91;5015716;28;20041;-79
2022/04/27 09:36:18;;;;;;;13.87;3.60;;;;;;;23.51;33.95;94877.19;5033828;28;20060;-79
2022/04/27 09:38:43;;;;;;;7.57;3.38;;;;;;;23.61;33.53;94874.28;5034307;28;20033;-79
2022/04/27 09:41:09;;;;;;;10.05;3.38;;;;;;;23.47;33.52;94870.97;5033523;28;20030;-79
2022/04/27 09:43:43;;;;;;;9.88;3.80;;;;;;;23.18;33.73;94874.97;5032763;28;20036;-78
2022/04/27 09:46:22;;;;;;;10.82;4.47;;;;;;;22.78;34.63;94882.19;5036387;28;20569;-79
2022/04/27 09:48:54;;;;;;;13.80;3.65;;;;;;;22.82;34.11;94863.78;5032785;28;20072;-78
2022/04/27 09:51:21;;;;;;;15.25;3.55;;;;;;;22.91;34.09;94864.59;5050290;28;20664;-78
2022/04/27 09:53:46;;;;;;;8.38;3.60;;;;;;;22.96;34.32;94873.22;5035200;28;20033;-79
2022/04/27 09:56:12;;;;;;;13.20;3.80;;;;;;;23.01;33.94;94869.63;5016454;28;20048;-79
2022/04/27 09:58:44;;;;;;;8.02;3.47;;;;;;;23.02;33.34;94871.19;5034022;28;20037;-79
2022/04/27 10:01:11;;;;;;;8.45;3.70;;;;;;;23.08;33.64;94862.00;5049447;28;20474;-80
2022/04/27 10:06:07;;;;;;;6.70;3.53;;;;;;;22.61;34.15;94856.38;5013136;28;20064;-79
2022/04/27 10:08:37;;;;;;;9.80;3.60;;;;;;;22.67;34.83;94849.84;4995556;28;20038;-79
2022/04/27 10:11:04;;;;;;;10.93;3.42;;;;;;;22.57;35.06;94867.88;5012238;28;20105;-79
2022/04/27 10:13:29;;;;;;;17.55;3.70;;;;;;;22.56;34.59;94864.47;4980823;28;20410;-79
2022/04/27 10:15:54;;;;;;;16.95;3.28;;;;;;;22.50;34.62;94860.38;4998732;28;20054;-79
2022/04/27 10:18:20;;;;;;;16.25;3.65;;;;;;;22.59;34.73;94853.25;5012599;28;20038;-80
2022/04/27 10:20:48;;;;;;;14.10;3.47;;;;;;;22.55;34.22;94857.59;5016620;28;20049;-79
2022/04/27 10:23:27;;;;;;;6.65;2.88;;;;;;;22.61;34.97;94847.63;4996637;28;20034;-80
2022/04/27 10:26:11;;;;;;;8.93;3.78;;;;;;;22.69;33.84;94858.28;5004603;28;20026;-80
2022/04/27 10:28:50;;;;;;;6.95;3.15;;;;;;;22.81;34.32;94846.31;5013064;28;20069;-80
2022/04/27 10:31:40;;;;;;;6.90;2.78;;;;;;;23.01;34.57;94843.91;5017691;28;20032;-80
2022/04/27 10:34:33;;;;;;;12.50;3.80;;;;;;;23.08;33.67;94840.78;5014908;28;20188;-80
2022/04/27 10:37:03;;;;;;;8.82;3.47;;;;;;;22.97;33.12;94832.34;5009132;28;20041;-80
2022/04/27 10:39:32;;;;;;;8.23;3.10;;;;;;;23.13;33.54;94826.59;4995395;28;20100;-80
2022/04/27 10:42:04;;;;;;;12.48;3.25;;;;;;;23.07;33.41;94828.59;5013152;28;20026;-80
2022/04/27 10:44:55;;;;;;;7.70;3.25;;;;;;;22.89;33.28;94825.13;5013657;28;20121;-82
2022/04/27 10:47:22;;;;;;;10.70;3.60;;;;;;;22.90;33.51;94820.63;4989013;28;20046;-80
2022/04/27 10:49:50;;;;;;;8.82;4.35;;;;;;;22.96;33.16;94808.78;4975904;28;20065;-80
2022/04/27 10:52:16;;;;;;;8.95;3.92;;;;;;;23.07;33.15;94804.72;4980426;28;20057;-80
2022/04/27 10:54:41;;;;;;;16.42;6.50;;;;;;;23.11;33.06;94800.41;4991944;28;20062;-78
2022/04/27 10:57:19;;;;;;;23.05;7.15;;;;;;;23.05;33.42;94798.97;4990993;28;20030;-80
2022/04/27 10:59:56;;;;;;;16.05;6.90;;;;;;;22.86;33.79;94803.78;4993490;28;20042;-79
2022/04/27 11:02:34;;;;;;;20.98;7.18;;;;;;;22.64;34.42;94792.16;4992993;28;20048;-79
2022/04/27 11:05:11;;;;;;;23.33;7.10;;;;;;;22.67;34.42;94796.06;4974923;28;20080;-80
2022/04/27 11:07:43;;;;;;;12.68;6.20;;;;;;;22.69;33.44;94796.53;4978647;28;20753;-80
2022/04/27 11:10:15;;;;;;;10.23;5.00;;;;;;;22.84;34.04;94784.75;4996646;28;20038;-80
2022/04/27 11:12:46;;;;;;;17.17;6.22;;;;;;;22.97;33.03;94773.22;5002097;28;20038;-80
2022/04/27 11:15:14;;;;;;;11.63;5.38;;;;;;;23.07;33.10;94783.50;5001567;28;20034;-79
2022/04/27 11:17:40;;;;;;;9.60;5.03;;;;;;;23.07;32.92;94772.91;4997805;28;20037;-80
2022/04/27 11:20:21;;;;;;;13.40;4.93;;;;;;;22.95;32.70;94773.53;4993369;28;20038;-79
2022/04/27 11:22:46;;;;;;;12.48;4.70;;;;;;;22.94;32.61;94784.44;4990915;28;20045;-79
2022/04/27 11:25:12;;;;;;;12.55;4.03;;;;;;;22.81;32.67;94766.78;4976505;28;20066;-79
2022/04/27 11:27:37;;;;;;;12.93;4.05;;;;;;;22.83;33.61;94767.28;4984729;28;20034;-79
2022/04/27 11:30:04;;;;;;;12.85;4.65;;;;;;;22.90;33.25;94765.72;4993104;28;20030;-79
2022/04/27 11:32:30;;;;;;;8.15;4.13;;;;;;;22.79;33.48;94758.34;4980329;28;20027;-78
2022/04/27 11:34:55;;;;;;;15.30;4.30;;;;;;;22.71;33.81;94773.91;4995937;28;20107;-79
2022/04/27 11:37:21;;;;;;;14.82;4.05;;;;;;;22.80;34.08;94758.03;4994421;28;20034;-79
2022/04/27 11:39:47;;;;;;;7.57;3.40;;;;;;;22.36;33.69;94753.72;4985354;28;20035;-79
2022/04/27 11:42:13;;;;;;;9.13;3.30;;;;;;;22.35;34.28;94762.75;4980486;28;20031;-79
2022/04/27 11:44:39;;;;;;;5.97;3.30;;;;;;;22.34;34.36;94751.38;4996449;28;20379;-79
2022/04/27 11:47:26;;;;;;;22.70;4.07;;;;;;;22.48;34.06;94743.31;4989659;28;20478;-79
2022/04/27 11:49:58;;;;;;;6.82;3.92;;;;;;;22.59;33.65;94747.22;5007166;28;20125;-79